Sunday, January 21, 2018, 3:43 PM EST
Back to Local

KMQE, Milton Blue Hill Observ

Location: Milton, MA, United States Lat: 42.217
Local Time: 3:43 PM EST (20:43 GMT) Lon: -71.117
Time Zone: US/Eastern Elev: 629 ft

Show me the last for .
Show Decoded

2018-01-21 14:56 METAR KMQE 211956Z AUTO 21004KT 08/M02 A3009 RMK AO1 SLP204 T00781017 =
2018-01-21 13:56 METAR KMQE 211856Z AUTO 08/M02 A3008 RMK AO1 SLP202 T00781017 =
2018-01-21 12:56 METAR KMQE 211756Z AUTO 32004KT 07/M02 A3008 RMK AO1 SLP201 T00721017 10078
                 20011 58014 =
2018-01-21 11:56 METAR KMQE 211656Z AUTO 00000KT 07/M02 A3010 RMK AO1 SLP208 T00721017 =
2018-01-21 10:56 METAR KMQE 211556Z AUTO VRB03KT 06/M01 A3012 RMK AO1 SLP215 T00611011 =
2018-01-21 09:56 METAR KMQE 211456Z AUTO 25005KT 04/M02 A3013 RMK AO1 SLP216 T00391017 51026 =
2018-01-21 08:56 METAR KMQE 211356Z AUTO 25006KT 02/M02 A3010 RMK AO1 SLP210 T00221022 =
2018-01-21 07:56 METAR KMQE 211256Z AUTO 31008KT 02/M02 A3007 RMK AO1 SLP198 T00221022 =
2018-01-21 06:56 METAR KMQE 211156Z AUTO 31008KT 02/M02 A3005 RMK AO1 SLP190 T00171022 10028
                 20011 51019 =
2018-01-21 05:56 METAR KMQE 211056Z AUTO 28009KT 01/M02 A3004 RMK AO1 SLP189 T00111022 =
2018-01-21 04:56 METAR KMQE 210956Z AUTO 28009KT 02/M02 A3001 RMK AO1 SLP175 T00221022 =
2018-01-21 03:56 METAR KMQE 210856Z AUTO 25008KT 02/M03 A2999 RMK AO1 SLP170 T00171028 51023 =
2018-01-21 02:56 METAR KMQE 210756Z AUTO 25008KT 02/M03 A2997 RMK AO1 SLP165 T00221028 =
2018-01-21 01:56 METAR KMQE 210656Z AUTO 26008KT 03/M03 A2995 RMK AO1 SLP155 T00281028 =
2018-01-21 00:56 METAR KMQE 210556Z AUTO 28012KT 02/M02 A2992 RMK AO1 SLP146 T00221022 10050
                 20022 50000 =
2018-01-20 23:56 METAR KMQE 210456Z AUTO 29013KT 03/M02 A2993 RMK AO1 SLP149 T00281022 400721028
                 =
2018-01-20 22:56 METAR KMQE 210356Z AUTO 28014KT 03/M03 A2992 RMK AO1 SLP147 T00331028 =
2018-01-20 21:56 METAR KMQE 210256Z AUTO 26013KT 04/M03 A2992 RMK AO1 SLP146 T00441028 51026 =
2018-01-20 20:56 METAR KMQE 210156Z AUTO 26014KT 04/M03 A2991 RMK AO1 SLP143 T00441028 =
2018-01-20 19:56 METAR KMQE 210056Z AUTO 26016G23KT 05/M03 A2987 RMK AO1 SLP131 T00501033 =
2018-01-20 18:56 METAR KMQE 202356Z AUTO 25013G20KT 05/M03 A2984 RMK AO1 SLP120 T00501033 10072
                 20050 53037 =
2018-01-20 17:56 METAR KMQE 202256Z AUTO 24012G19KT 06/M03 A2980 RMK AO1 SLP107 T00561033 =
2018-01-20 16:56 METAR KMQE 202156Z AUTO 25012G18KT 06/M03 A2977 RMK AO1 SLP095 T00611033 =
2018-01-20 15:56 METAR KMQE 202056Z AUTO 26016G22KT 07/M03 A2973 RMK AO1 SLP083 T00671033 53026 =

Support USWX by starting your Amazon purchase here.